sensor_id;sensor_type;location;lat;lon;timestamp;temperature;humidity
43338;DHT22;28933;52.492;13.434;2022-11-20T00:00:44;4.40;99.50
43338;DHT22;28933;52.492;13.434;2022-11-20T00:03:10;4.40;99.50
43338;DHT22;28933;52.492;13.434;2022-11-20T00:05:36;4.40;99.50
43338;DHT22;28933;52.492;13.434;2022-11-20T00:08:01;4.40;99.50
43338;DHT22;28933;52.492;13.434;2022-11-20T00:10:27;4.40;99.50
43338;DHT22;28933;52.492;13.434;2022-11-20T00:12:53;4.40;99.50
43338;DHT22;28933;52.492;13.434;2022-11-20T00:15:18;4.40;99.40
43338;DHT22;28933;52.492;13.434;2022-11-20T00:17:44;4.30;99.40
43338;DHT22;28933;52.492;13.434;2022-11-20T00:20:10;4.30;99.40
43338;DHT22;28933;52.492;13.434;2022-11-20T00:22:36;4.30;99.50
43338;DHT22;28933;52.492;13.434;2022-11-20T00:25:01;4.30;99.40
43338;DHT22;28933;52.492;13.434;2022-11-20T00:27:28;4.30;99.40
43338;DHT22;28933;52.492;13.434;2022-11-20T00:29:54;4.30;99.40
43338;DHT22;28933;52.492;13.434;2022-11-20T00:32:19;4.30;99.40
43338;DHT22;28933;52.492;13.434;2022-11-20T00:34:45;4.30;99.40
43338;DHT22;28933;52.492;13.434;2022-11-20T00:37:11;4.30;99.40
43338;DHT22;28933;52.492;13.434;2022-11-20T00:39:36;4.30;99.40
43338;DHT22;28933;52.492;13.434;2022-11-20T00:42:02;4.30;99.40
43338;DHT22;28933;52.492;13.434;2022-11-20T00:44:27;4.30;99.40
43338;DHT22;28933;52.492;13.434;2022-11-20T00:46:53;4.30;99.40
43338;DHT22;28933;52.492;13.434;2022-11-20T00:49:19;4.30;99.40
43338;DHT22;28933;52.492;13.434;2022-11-20T00:51:44;4.30;99.30
43338;DHT22;28933;52.492;13.434;2022-11-20T00:54:10;4.30;99.50
43338;DHT22;28933;52.492;13.434;2022-11-20T00:56:36;4.30;99.30
43338;DHT22;28933;52.492;13.434;2022-11-20T00:59:02;4.30;99.30
43338;DHT22;28933;52.492;13.434;2022-11-20T01:01:29;4.30;99.30
43338;DHT22;28933;52.492;13.434;2022-11-20T01:03:57;4.30;99.30
43338;DHT22;28933;52.492;13.434;2022-11-20T01:06:26;4.30;99.30
43338;DHT22;28933;52.492;13.434;2022-11-20T01:08:54;4.30;99.30
43338;DHT22;28933;52.492;13.434;2022-11-20T01:11:23;4.30;99.20
43338;DHT22;28933;52.492;13.434;2022-11-20T01:13:50;4.30;99.30
43338;DHT22;28933;52.492;13.434;2022-11-20T01:16:28;4.30;99.30
43338;DHT22;28933;52.492;13.434;2022-11-20T01:18:57;4.20;99.20
43338;DHT22;28933;52.492;13.434;2022-11-20T01:21:28;4.20;99.30
43338;DHT22;28933;52.492;13.434;2022-11-20T01:23:55;4.30;99.50
43338;DHT22;28933;52.492;13.434;2022-11-20T01:26:30;4.20;99.20
43338;DHT22;28933;52.492;13.434;2022-11-20T01:28:57;4.20;99.20
43338;DHT22;28933;52.492;13.434;2022-11-20T01:31:25;4.20;99.20
43338;DHT22;28933;52.492;13.434;2022-11-20T01:33:53;4.20;99.20
43338;DHT22;28933;52.492;13.434;2022-11-20T01:36:20;4.20;99.30
43338;DHT22;28933;52.492;13.434;2022-11-20T01:38:47;4.20;99.30
43338;DHT22;28933;52.492;13.434;2022-11-20T01:41:15;4.20;99.30
43338;DHT22;28933;52.492;13.434;2022-11-20T01:44:00;4.20;99.20
43338;DHT22;28933;52.492;13.434;2022-11-20T01:46:28;4.20;99.20
43338;DHT22;28933;52.492;13.434;2022-11-20T01:49:19;4.30;99.30
43338;DHT22;28933;52.492;13.434;2022-11-20T01:51:57;4.30;99.20
43338;DHT22;28933;52.492;13.434;2022-11-20T01:54:30;4.20;99.20
43338;DHT22;28933;52.492;13.434;2022-11-20T01:57:00;4.20;99.20
43338;DHT22;28933;52.492;13.434;2022-11-20T01:59:28;4.20;99.20
43338;DHT22;28933;52.492;13.434;2022-11-20T02:01:54;4.20;99.20
43338;DHT22;28933;52.492;13.434;2022-11-20T02:04:21;4.20;99.20
43338;DHT22;28933;52.492;13.434;2022-11-20T02:06:57;4.20;99.20
43338;DHT22;28933;52.492;13.434;2022-11-20T02:09:24;4.20;99.20
43338;DHT22;28933;52.492;13.434;2022-11-20T02:11:50;4.20;99.20
43338;DHT22;28933;52.492;13.434;2022-11-20T02:14:16;4.20;99.20
43338;DHT22;28933;52.492;13.434;2022-11-20T02:16:46;4.20;99.10
43338;DHT22;28933;52.492;13.434;2022-11-20T02:19:30;4.20;99.10
43338;DHT22;28933;52.492;13.434;2022-11-20T02:22:06;4.20;99.10
43338;DHT22;28933;52.492;13.434;2022-11-20T02:24:34;4.20;99.10
43338;DHT22;28933;52.492;13.434;2022-11-20T02:27:12;4.10;99.10
43338;DHT22;28933;52.492;13.434;2022-11-20T02:30:06;4.20;99.00
43338;DHT22;28933;52.492;13.434;2022-11-20T02:32:37;4.10;99.00
43338;DHT22;28933;52.492;13.434;2022-11-20T02:37:58;4.10;99.00
43338;DHT22;28933;52.492;13.434;2022-11-20T02:40:25;4.10;99.00
43338;DHT22;28933;52.492;13.434;2022-11-20T02:42:54;4.10;99.00
43338;DHT22;28933;52.492;13.434;2022-11-20T02:45:20;4.10;99.00
43338;DHT22;28933;52.492;13.434;2022-11-20T02:47:46;4.10;99.00
43338;DHT22;28933;52.492;13.434;2022-11-20T02:50:12;4.10;98.90
43338;DHT22;28933;52.492;13.434;2022-11-20T02:52:37;4.10;98.90
43338;DHT22;28933;52.492;13.434;2022-11-20T02:55:03;4.00;98.90
43338;DHT22;28933;52.492;13.434;2022-11-20T02:57:29;4.10;99.00
43338;DHT22;28933;52.492;13.434;2022-11-20T02:59:55;4.10;98.90
43338;DHT22;28933;52.492;13.434;2022-11-20T03:02:21;4.10;98.90
43338;DHT22;28933;52.492;13.434;2022-11-20T03:04:47;4.00;98.90
43338;DHT22;28933;52.492;13.434;2022-11-20T03:07:12;4.10;98.90
43338;DHT22;28933;52.492;13.434;2022-11-20T03:09:38;4.10;98.90
43338;DHT22;28933;52.492;13.434;2022-11-20T03:12:04;4.10;98.80
43338;DHT22;28933;52.492;13.434;2022-11-20T03:14:30;4.00;98.80
43338;DHT22;28933;52.492;13.434;2022-11-20T03:16:56;4.00;98.70
43338;DHT22;28933;52.492;13.434;2022-11-20T03:19:22;4.00;98.70
43338;DHT22;28933;52.492;13.434;2022-11-20T03:21:47;4.00;98.80
43338;DHT22;28933;52.492;13.434;2022-11-20T03:24:14;4.00;98.70
43338;DHT22;28933;52.492;13.434;2022-11-20T03:26:40;4.00;98.70
43338;DHT22;28933;52.492;13.434;2022-11-20T03:29:05;4.00;98.70
43338;DHT22;28933;52.492;13.434;2022-11-20T03:31:39;4.00;98.70
43338;DHT22;28933;52.492;13.434;2022-11-20T03:34:07;4.00;98.70
43338;DHT22;28933;52.492;13.434;2022-11-20T03:36:32;3.90;98.70
43338;DHT22;28933;52.492;13.434;2022-11-20T03:38:58;4.00;98.70
43338;DHT22;28933;52.492;13.434;2022-11-20T03:41:26;4.00;98.60
43338;DHT22;28933;52.492;13.434;2022-11-20T03:43:54;4.00;98.60
43338;DHT22;28933;52.492;13.434;2022-11-20T03:46:21;4.00;98.60
43338;DHT22;28933;52.492;13.434;2022-11-20T03:48:47;4.00;98.60
43338;DHT22;28933;52.492;13.434;2022-11-20T03:51:15;4.00;98.70
43338;DHT22;28933;52.492;13.434;2022-11-20T03:53:43;4.00;98.70
43338;DHT22;28933;52.492;13.434;2022-11-20T03:56:11;4.00;98.70
43338;DHT22;28933;52.492;13.434;2022-11-20T03:58:38;3.90;98.70
43338;DHT22;28933;52.492;13.434;2022-11-20T04:01:34;3.90;98.70
43338;DHT22;28933;52.492;13.434;2022-11-20T04:04:01;4.00;98.70
43338;DHT22;28933;52.492;13.434;2022-11-20T04:06:29;4.00;98.70
43338;DHT22;28933;52.492;13.434;2022-11-20T04:08:56;4.00;98.70
43338;DHT22;28933;52.492;13.434;2022-11-20T04:11:30;4.00;98.70
43338;DHT22;28933;52.492;13.434;2022-11-20T04:13:59;4.00;98.70
43338;DHT22;28933;52.492;13.434;2022-11-20T04:16:25;4.00;98.70
43338;DHT22;28933;52.492;13.434;2022-11-20T04:18:57;4.00;98.60
43338;DHT22;28933;52.492;13.434;2022-11-20T04:21:24;4.00;98.60
43338;DHT22;28933;52.492;13.434;2022-11-20T04:23:51;3.90;98.50
43338;DHT22;28933;52.492;13.434;2022-11-20T04:26:18;4.00;98.50
43338;DHT22;28933;52.492;13.434;2022-11-20T04:28:45;3.90;98.50
43338;DHT22;28933;52.492;13.434;2022-11-20T04:31:17;3.90;98.40
43338;DHT22;28933;52.492;13.434;2022-11-20T04:33:44;3.90;98.40
43338;DHT22;28933;52.492;13.434;2022-11-20T04:38:37;3.80;98.40
43338;DHT22;28933;52.492;13.434;2022-11-20T04:41:05;3.80;98.40
43338;DHT22;28933;52.492;13.434;2022-11-20T04:43:32;3.70;98.40
43338;DHT22;28933;52.492;13.434;2022-11-20T04:45:59;3.80;98.50
43338;DHT22;28933;52.492;13.434;2022-11-20T04:48:26;3.80;98.50
43338;DHT22;28933;52.492;13.434;2022-11-20T04:50:52;3.80;98.50
43338;DHT22;28933;52.492;13.434;2022-11-20T04:53:19;3.80;98.40
43338;DHT22;28933;52.492;13.434;2022-11-20T04:55:45;3.80;98.40
43338;DHT22;28933;52.492;13.434;2022-11-20T04:58:12;3.80;98.40
43338;DHT22;28933;52.492;13.434;2022-11-20T05:00:38;3.80;98.40
43338;DHT22;28933;52.492;13.434;2022-11-20T05:03:05;3.70;98.40
43338;DHT22;28933;52.492;13.434;2022-11-20T05:05:31;3.70;98.40
43338;DHT22;28933;52.492;13.434;2022-11-20T05:07:57;3.80;98.40
43338;DHT22;28933;52.492;13.434;2022-11-20T05:10:25;3.80;98.40
43338;DHT22;28933;52.492;13.434;2022-11-20T05:12:51;3.80;98.30
43338;DHT22;28933;52.492;13.434;2022-11-20T05:15:19;3.80;98.40
43338;DHT22;28933;52.492;13.434;2022-11-20T05:17:49;3.80;98.40
43338;DHT22;28933;52.492;13.434;2022-11-20T05:20:15;3.80;98.40
43338;DHT22;28933;52.492;13.434;2022-11-20T05:22:41;3.80;98.40
43338;DHT22;28933;52.492;13.434;2022-11-20T05:25:07;3.70;98.30
43338;DHT22;28933;52.492;13.434;2022-11-20T05:27:33;3.70;98.40
43338;DHT22;28933;52.492;13.434;2022-11-20T05:29:58;3.70;98.40
43338;DHT22;28933;52.492;13.434;2022-11-20T05:32:24;3.80;98.40
43338;DHT22;28933;52.492;13.434;2022-11-20T05:34:51;3.80;98.40
43338;DHT22;28933;52.492;13.434;2022-11-20T05:37:17;3.80;98.40
43338;DHT22;28933;52.492;13.434;2022-11-20T05:39:42;3.80;98.40
43338;DHT22;28933;52.492;13.434;2022-11-20T05:42:08;3.80;98.40
43338;DHT22;28933;52.492;13.434;2022-11-20T05:44:52;3.80;98.40
43338;DHT22;28933;52.492;13.434;2022-11-20T05:47:18;3.80;98.40
43338;DHT22;28933;52.492;13.434;2022-11-20T05:49:45;3.80;98.40
43338;DHT22;28933;52.492;13.434;2022-11-20T05:52:11;3.80;98.40
43338;DHT22;28933;52.492;13.434;2022-11-20T05:54:36;3.80;98.40
43338;DHT22;28933;52.492;13.434;2022-11-20T05:57:02;3.90;98.50
43338;DHT22;28933;52.492;13.434;2022-11-20T05:59:28;3.80;98.40
43338;DHT22;28933;52.492;13.434;2022-11-20T06:01:55;3.80;98.40
43338;DHT22;28933;52.492;13.434;2022-11-20T06:04:20;3.90;98.50
43338;DHT22;28933;52.492;13.434;2022-11-20T06:06:46;3.80;98.50
43338;DHT22;28933;52.492;13.434;2022-11-20T06:09:11;3.80;98.50
43338;DHT22;28933;52.492;13.434;2022-11-20T06:11:37;3.80;98.50
43338;DHT22;28933;52.492;13.434;2022-11-20T06:14:03;3.80;98.50
43338;DHT22;28933;52.492;13.434;2022-11-20T06:16:29;3.80;98.50
43338;DHT22;28933;52.492;13.434;2022-11-20T06:18:55;3.80;98.50
43338;DHT22;28933;52.492;13.434;2022-11-20T06:21:21;3.80;98.80
43338;DHT22;28933;52.492;13.434;2022-11-20T06:23:48;3.80;98.60
43338;DHT22;28933;52.492;13.434;2022-11-20T06:26:17;3.80;98.60
43338;DHT22;28933;52.492;13.434;2022-11-20T06:28:43;3.80;98.60
43338;DHT22;28933;52.492;13.434;2022-11-20T06:31:11;3.80;98.60
43338;DHT22;28933;52.492;13.434;2022-11-20T06:33:38;3.80;98.50
43338;DHT22;28933;52.492;13.434;2022-11-20T06:36:05;3.80;98.50
43338;DHT22;28933;52.492;13.434;2022-11-20T06:38:31;3.70;98.60
43338;DHT22;28933;52.492;13.434;2022-11-20T06:40:57;3.70;98.60
43338;DHT22;28933;52.492;13.434;2022-11-20T06:43:23;3.80;98.80
43338;DHT22;28933;52.492;13.434;2022-11-20T06:45:53;3.80;98.60
43338;DHT22;28933;52.492;13.434;2022-11-20T06:48:19;3.80;98.60
43338;DHT22;28933;52.492;13.434;2022-11-20T06:50:45;3.80;98.50
43338;DHT22;28933;52.492;13.434;2022-11-20T06:53:11;3.80;98.50
43338;DHT22;28933;52.492;13.434;2022-11-20T06:55:37;3.80;98.50
43338;DHT22;28933;52.492;13.434;2022-11-20T06:58:06;3.80;98.50
43338;DHT22;28933;52.492;13.434;2022-11-20T07:00:32;3.80;98.50
43338;DHT22;28933;52.492;13.434;2022-11-20T07:02:58;3.80;98.50
43338;DHT22;28933;52.492;13.434;2022-11-20T07:05:23;3.70;98.50
43338;DHT22;28933;52.492;13.434;2022-11-20T07:07:50;3.80;98.50
43338;DHT22;28933;52.492;13.434;2022-11-20T07:10:17;3.80;98.50
43338;DHT22;28933;52.492;13.434;2022-11-20T07:12:49;3.80;98.50
43338;DHT22;28933;52.492;13.434;2022-11-20T07:15:18;3.80;98.50
43338;DHT22;28933;52.492;13.434;2022-11-20T07:17:45;3.80;98.50
43338;DHT22;28933;52.492;13.434;2022-11-20T07:20:12;3.80;98.50
43338;DHT22;28933;52.492;13.434;2022-11-20T07:22:37;3.80;98.50
43338;DHT22;28933;52.492;13.434;2022-11-20T07:25:03;3.80;98.50
43338;DHT22;28933;52.492;13.434;2022-11-20T07:27:30;3.80;98.50
43338;DHT22;28933;52.492;13.434;2022-11-20T07:30:03;3.80;98.50
43338;DHT22;28933;52.492;13.434;2022-11-20T07:32:29;3.80;98.50
43338;DHT22;28933;52.492;13.434;2022-11-20T07:34:56;3.80;98.50
43338;DHT22;28933;52.492;13.434;2022-11-20T07:37:22;3.80;98.50
43338;DHT22;28933;52.492;13.434;2022-11-20T07:39:48;3.80;98.40
43338;DHT22;28933;52.492;13.434;2022-11-20T07:42:14;3.80;98.40
43338;DHT22;28933;52.492;13.434;2022-11-20T07:44:40;3.80;98.40
43338;DHT22;28933;52.492;13.434;2022-11-20T07:47:05;3.90;98.40
43338;DHT22;28933;52.492;13.434;2022-11-20T07:49:31;3.90;98.30
43338;DHT22;28933;52.492;13.434;2022-11-20T07:51:56;3.90;98.30
43338;DHT22;28933;52.492;13.434;2022-11-20T07:54:22;3.90;98.20
43338;DHT22;28933;52.492;13.434;2022-11-20T07:56:49;3.90;98.20
43338;DHT22;28933;52.492;13.434;2022-11-20T07:59:15;3.90;98.20
43338;DHT22;28933;52.492;13.434;2022-11-20T08:01:41;3.90;98.20
43338;DHT22;28933;52.492;13.434;2022-11-20T08:04:08;3.90;98.10
43338;DHT22;28933;52.492;13.434;2022-11-20T08:06:34;3.90;98.10
43338;DHT22;28933;52.492;13.434;2022-11-20T08:08:59;3.90;98.10
43338;DHT22;28933;52.492;13.434;2022-11-20T08:11:25;3.90;98.10
43338;DHT22;28933;52.492;13.434;2022-11-20T08:14:09;3.90;98.20
43338;DHT22;28933;52.492;13.434;2022-11-20T08:16:43;3.90;98.10
43338;DHT22;28933;52.492;13.434;2022-11-20T08:19:10;3.90;98.20
43338;DHT22;28933;52.492;13.434;2022-11-20T08:21:36;4.00;98.20
43338;DHT22;28933;52.492;13.434;2022-11-20T08:24:01;4.00;98.20
43338;DHT22;28933;52.492;13.434;2022-11-20T08:26:27;4.00;98.20
43338;DHT22;28933;52.492;13.434;2022-11-20T08:28:54;4.00;98.10
43338;DHT22;28933;52.492;13.434;2022-11-20T08:31:21;4.10;98.20
43338;DHT22;28933;52.492;13.434;2022-11-20T08:33:47;4.10;98.10
43338;DHT22;28933;52.492;13.434;2022-11-20T08:36:13;4.10;98.10
43338;DHT22;28933;52.492;13.434;2022-11-20T08:38:39;4.10;98.10
43338;DHT22;28933;52.492;13.434;2022-11-20T08:41:05;4.10;98.10
43338;DHT22;28933;52.492;13.434;2022-11-20T08:44:09;4.10;98.10
43338;DHT22;28933;52.492;13.434;2022-11-20T08:46:39;4.20;98.10
43338;DHT22;28933;52.492;13.434;2022-11-20T08:49:11;4.20;98.00
43338;DHT22;28933;52.492;13.434;2022-11-20T08:51:37;4.20;98.00
43338;DHT22;28933;52.492;13.434;2022-11-20T08:54:04;4.20;98.00
43338;DHT22;28933;52.492;13.434;2022-11-20T08:56:30;4.20;98.00
43338;DHT22;28933;52.492;13.434;2022-11-20T08:58:56;4.20;98.00
43338;DHT22;28933;52.492;13.434;2022-11-20T09:01:23;4.30;98.00
43338;DHT22;28933;52.492;13.434;2022-11-20T09:03:49;4.30;98.00
43338;DHT22;28933;52.492;13.434;2022-11-20T09:06:15;4.30;98.00
43338;DHT22;28933;52.492;13.434;2022-11-20T09:08:41;4.30;98.00
43338;DHT22;28933;52.492;13.434;2022-11-20T09:11:08;4.40;98.00
43338;DHT22;28933;52.492;13.434;2022-11-20T09:13:35;4.40;97.90
43338;DHT22;28933;52.492;13.434;2022-11-20T09:16:06;4.40;97.90
43338;DHT22;28933;52.492;13.434;2022-11-20T09:18:33;4.40;97.80
43338;DHT22;28933;52.492;13.434;2022-11-20T09:21:00;4.40;97.80
43338;DHT22;28933;52.492;13.434;2022-11-20T09:23:27;4.50;97.80
43338;DHT22;28933;52.492;13.434;2022-11-20T09:25:53;4.50;97.80
43338;DHT22;28933;52.492;13.434;2022-11-20T09:28:21;4.50;97.70
43338;DHT22;28933;52.492;13.434;2022-11-20T09:30:47;4.50;97.70
43338;DHT22;28933;52.492;13.434;2022-11-20T09:33:13;4.50;97.70
43338;DHT22;28933;52.492;13.434;2022-11-20T09:35:39;4.50;97.70
43338;DHT22;28933;52.492;13.434;2022-11-20T09:38:07;4.50;97.70
43338;DHT22;28933;52.492;13.434;2022-11-20T09:40:38;4.50;97.70
43338;DHT22;28933;52.492;13.434;2022-11-20T09:43:32;4.50;97.90
43338;DHT22;28933;52.492;13.434;2022-11-20T09:46:04;4.60;97.70
43338;DHT22;28933;52.492;13.434;2022-11-20T09:48:59;4.60;97.60
43338;DHT22;28933;52.492;13.434;2022-11-20T09:51:57;4.60;97.60
43338;DHT22;28933;52.492;13.434;2022-11-20T09:54:50;4.60;97.60
43338;DHT22;28933;52.492;13.434;2022-11-20T09:57:21;4.60;97.50
43338;DHT22;28933;52.492;13.434;2022-11-20T10:00:00;4.60;97.50
43338;DHT22;28933;52.492;13.434;2022-11-20T10:02:35;4.60;97.40
43338;DHT22;28933;52.492;13.434;2022-11-20T10:05:09;4.70;97.40
43338;DHT22;28933;52.492;13.434;2022-11-20T10:07:41;4.70;97.40
43338;DHT22;28933;52.492;13.434;2022-11-20T10:10:16;4.70;97.30
43338;DHT22;28933;52.492;13.434;2022-11-20T10:12:53;4.70;97.30
43338;DHT22;28933;52.492;13.434;2022-11-20T10:26:21;4.80;97.20
43338;DHT22;28933;52.492;13.434;2022-11-20T10:29:09;4.90;97.20
43338;DHT22;28933;52.492;13.434;2022-11-20T10:31:45;4.90;97.10
43338;DHT22;28933;52.492;13.434;2022-11-20T10:37:12;4.90;97.00
43338;DHT22;28933;52.492;13.434;2022-11-20T10:42:46;4.90;96.90
43338;DHT22;28933;52.492;13.434;2022-11-20T10:48:38;4.90;97.00
43338;DHT22;28933;52.492;13.434;2022-11-20T10:54:15;5.00;97.00
43338;DHT22;28933;52.492;13.434;2022-11-20T10:56:48;5.00;97.00
43338;DHT22;28933;52.492;13.434;2022-11-20T11:01:59;5.00;96.90
43338;DHT22;28933;52.492;13.434;2022-11-20T11:04:37;5.10;96.90
43338;DHT22;28933;52.492;13.434;2022-11-20T11:09:46;5.10;96.80
43338;DHT22;28933;52.492;13.434;2022-11-20T11:12:12;5.10;96.80
43338;DHT22;28933;52.492;13.434;2022-11-20T11:14:43;5.10;96.80
43338;DHT22;28933;52.492;13.434;2022-11-20T11:20:18;5.10;96.80
43338;DHT22;28933;52.492;13.434;2022-11-20T11:22:55;5.20;96.90
43338;DHT22;28933;52.492;13.434;2022-11-20T11:25:30;5.20;96.80
43338;DHT22;28933;52.492;13.434;2022-11-20T11:28:04;5.20;96.80
43338;DHT22;28933;52.492;13.434;2022-11-20T11:30:42;5.20;96.80
43338;DHT22;28933;52.492;13.434;2022-11-20T11:33:19;5.30;96.90
43338;DHT22;28933;52.492;13.434;2022-11-20T11:35:47;5.30;96.80
43338;DHT22;28933;52.492;13.434;2022-11-20T11:38:43;5.40;96.80
43338;DHT22;28933;52.492;13.434;2022-11-20T11:41:20;5.40;96.70
43338;DHT22;28933;52.492;13.434;2022-11-20T11:43:58;5.40;96.70
43338;DHT22;28933;52.492;13.434;2022-11-20T11:46:54;5.40;96.60
43338;DHT22;28933;52.492;13.434;2022-11-20T11:49:20;5.50;96.60
43338;DHT22;28933;52.492;13.434;2022-11-20T11:52:08;5.50;96.50
43338;DHT22;28933;52.492;13.434;2022-11-20T11:54:40;5.60;96.50
43338;DHT22;28933;52.492;13.434;2022-11-20T11:57:28;5.60;96.40
43338;DHT22;28933;52.492;13.434;2022-11-20T12:03:04;5.60;96.30
43338;DHT22;28933;52.492;13.434;2022-11-20T12:05:40;5.70;96.30
43338;DHT22;28933;52.492;13.434;2022-11-20T12:11:14;5.60;96.40
43338;DHT22;28933;52.492;13.434;2022-11-20T12:13:49;5.60;96.60
43338;DHT22;28933;52.492;13.434;2022-11-20T12:16:19;5.60;96.40
43338;DHT22;28933;52.492;13.434;2022-11-20T12:18:49;5.60;96.40
43338;DHT22;28933;52.492;13.434;2022-11-20T12:37:33;5.60;96.50
43338;DHT22;28933;52.492;13.434;2022-11-20T12:40:15;5.60;96.50
43338;DHT22;28933;52.492;13.434;2022-11-20T12:43:04;5.60;96.50
43338;DHT22;28933;52.492;13.434;2022-11-20T12:46:11;5.60;96.50
43338;DHT22;28933;52.492;13.434;2022-11-20T12:51:21;5.60;96.30
43338;DHT22;28933;52.492;13.434;2022-11-20T12:57:00;5.60;96.30
43338;DHT22;28933;52.492;13.434;2022-11-20T13:08:28;5.40;96.10
43338;DHT22;28933;52.492;13.434;2022-11-20T13:11:00;5.40;96.10
43338;DHT22;28933;52.492;13.434;2022-11-20T13:18:54;5.30;96.00
43338;DHT22;28933;52.492;13.434;2022-11-20T13:21:37;5.30;96.10
43338;DHT22;28933;52.492;13.434;2022-11-20T13:24:27;5.20;96.20
43338;DHT22;28933;52.492;13.434;2022-11-20T13:29:35;5.30;96.30
43338;DHT22;28933;52.492;13.434;2022-11-20T13:32:18;5.30;96.30
43338;DHT22;28933;52.492;13.434;2022-11-20T13:34:54;5.30;96.30
43338;DHT22;28933;52.492;13.434;2022-11-20T13:40:26;5.30;96.30
43338;DHT22;28933;52.492;13.434;2022-11-20T13:43:08;5.30;96.40
43338;DHT22;28933;52.492;13.434;2022-11-20T13:45:36;5.30;96.40
43338;DHT22;28933;52.492;13.434;2022-11-20T13:48:15;5.40;96.40
43338;DHT22;28933;52.492;13.434;2022-11-20T13:51:07;5.40;96.40
43338;DHT22;28933;52.492;13.434;2022-11-20T13:54:01;5.50;96.40
43338;DHT22;28933;52.492;13.434;2022-11-20T13:59:08;5.40;96.30
43338;DHT22;28933;52.492;13.434;2022-11-20T14:01:39;5.40;96.30
43338;DHT22;28933;52.492;13.434;2022-11-20T14:04:08;5.40;96.30
43338;DHT22;28933;52.492;13.434;2022-11-20T14:06:44;5.40;96.40
43338;DHT22;28933;52.492;13.434;2022-11-20T14:09:29;5.40;96.40
43338;DHT22;28933;52.492;13.434;2022-11-20T14:11:55;5.40;96.40
43338;DHT22;28933;52.492;13.434;2022-11-20T14:14:24;5.40;96.50
43338;DHT22;28933;52.492;13.434;2022-11-20T14:16:50;5.40;96.50
43338;DHT22;28933;52.492;13.434;2022-11-20T14:21:48;5.30;96.60
43338;DHT22;28933;52.492;13.434;2022-11-20T14:24:19;5.30;96.60
43338;DHT22;28933;52.492;13.434;2022-11-20T14:26:46;5.30;96.60
43338;DHT22;28933;52.492;13.434;2022-11-20T14:29:20;5.30;96.70
43338;DHT22;28933;52.492;13.434;2022-11-20T14:31:48;5.30;96.70
43338;DHT22;28933;52.492;13.434;2022-11-20T14:34:23;5.30;96.70
43338;DHT22;28933;52.492;13.434;2022-11-20T14:36:53;5.30;96.70
43338;DHT22;28933;52.492;13.434;2022-11-20T14:39:22;5.30;96.60
43338;DHT22;28933;52.492;13.434;2022-11-20T14:41:57;5.30;96.60
43338;DHT22;28933;52.492;13.434;2022-11-20T14:44:27;5.20;96.70
43338;DHT22;28933;52.492;13.434;2022-11-20T14:46:55;5.20;96.60
43338;DHT22;28933;52.492;13.434;2022-11-20T14:49:21;5.20;96.50
43338;DHT22;28933;52.492;13.434;2022-11-20T14:51:47;5.20;96.50
43338;DHT22;28933;52.492;13.434;2022-11-20T14:54:23;5.10;96.50
43338;DHT22;28933;52.492;13.434;2022-11-20T14:57:01;5.10;96.70
43338;DHT22;28933;52.492;13.434;2022-11-20T14:59:32;5.00;96.50
43338;DHT22;28933;52.492;13.434;2022-11-20T15:04:51;4.90;96.50
43338;DHT22;28933;52.492;13.434;2022-11-20T15:07:33;4.90;96.40
43338;DHT22;28933;52.492;13.434;2022-11-20T15:10:09;4.90;96.40
43338;DHT22;28933;52.492;13.434;2022-11-20T15:12:59;4.90;96.40
43338;DHT22;28933;52.492;13.434;2022-11-20T15:15:29;4.90;96.40
43338;DHT22;28933;52.492;13.434;2022-11-20T15:17:56;4.90;96.40
43338;DHT22;28933;52.492;13.434;2022-11-20T15:20:25;4.90;96.40
43338;DHT22;28933;52.492;13.434;2022-11-20T15:22:51;4.90;96.40
43338;DHT22;28933;52.492;13.434;2022-11-20T15:25:18;4.90;96.40
43338;DHT22;28933;52.492;13.434;2022-11-20T15:27:44;4.80;96.30
43338;DHT22;28933;52.492;13.434;2022-11-20T15:30:16;4.80;96.30
43338;DHT22;28933;52.492;13.434;2022-11-20T15:32:43;4.80;96.40
43338;DHT22;28933;52.492;13.434;2022-11-20T15:35:09;4.90;96.30
43338;DHT22;28933;52.492;13.434;2022-11-20T15:37:36;4.90;96.30
43338;DHT22;28933;52.492;13.434;2022-11-20T15:40:02;4.80;96.30
43338;DHT22;28933;52.492;13.434;2022-11-20T15:42:28;4.90;96.30
43338;DHT22;28933;52.492;13.434;2022-11-20T15:44:54;4.80;96.30
43338;DHT22;28933;52.492;13.434;2022-11-20T15:47:28;4.80;96.30
43338;DHT22;28933;52.492;13.434;2022-11-20T15:49:55;4.80;96.40
43338;DHT22;28933;52.492;13.434;2022-11-20T15:52:21;4.80;96.40
43338;DHT22;28933;52.492;13.434;2022-11-20T15:54:47;4.90;96.40
43338;DHT22;28933;52.492;13.434;2022-11-20T15:57:13;4.90;96.40
43338;DHT22;28933;52.492;13.434;2022-11-20T15:59:39;4.90;96.40
43338;DHT22;28933;52.492;13.434;2022-11-20T16:02:13;4.90;96.40
43338;DHT22;28933;52.492;13.434;2022-11-20T16:04:39;4.90;96.40
43338;DHT22;28933;52.492;13.434;2022-11-20T16:07:05;4.90;96.40
43338;DHT22;28933;52.492;13.434;2022-11-20T16:09:31;4.90;96.40
43338;DHT22;28933;52.492;13.434;2022-11-20T16:11:57;4.90;96.40
43338;DHT22;28933;52.492;13.434;2022-11-20T16:14:26;4.80;96.40
43338;DHT22;28933;52.492;13.434;2022-11-20T16:17:11;4.80;96.40
43338;DHT22;28933;52.492;13.434;2022-11-20T16:19:37;4.80;96.40
43338;DHT22;28933;52.492;13.434;2022-11-20T16:22:02;4.80;96.30
43338;DHT22;28933;52.492;13.434;2022-11-20T16:24:28;4.70;96.30
43338;DHT22;28933;52.492;13.434;2022-11-20T16:26:55;4.60;96.30
43338;DHT22;28933;52.492;13.434;2022-11-20T16:29:20;4.60;96.30
43338;DHT22;28933;52.492;13.434;2022-11-20T16:31:46;4.60;96.40
43338;DHT22;28933;52.492;13.434;2022-11-20T16:34:12;4.60;96.30
43338;DHT22;28933;52.492;13.434;2022-11-20T16:36:41;4.60;96.30
43338;DHT22;28933;52.492;13.434;2022-11-20T16:39:08;4.50;96.30
43338;DHT22;28933;52.492;13.434;2022-11-20T16:41:34;4.50;96.30
43338;DHT22;28933;52.492;13.434;2022-11-20T16:44:02;4.40;96.40
43338;DHT22;28933;52.492;13.434;2022-11-20T16:46:31;4.40;96.40
43338;DHT22;28933;52.492;13.434;2022-11-20T16:48:57;4.40;96.40
43338;DHT22;28933;52.492;13.434;2022-11-20T16:51:24;4.40;96.40
43338;DHT22;28933;52.492;13.434;2022-11-20T16:53:50;4.30;96.40
43338;DHT22;28933;52.492;13.434;2022-11-20T16:56:18;4.30;96.40
43338;DHT22;28933;52.492;13.434;2022-11-20T16:58:46;4.30;96.40
43338;DHT22;28933;52.492;13.434;2022-11-20T17:01:14;4.30;96.40
43338;DHT22;28933;52.492;13.434;2022-11-20T17:03:41;4.20;96.50
43338;DHT22;28933;52.492;13.434;2022-11-20T17:08:37;4.20;96.50
43338;DHT22;28933;52.492;13.434;2022-11-20T17:11:07;4.20;96.50
43338;DHT22;28933;52.492;13.434;2022-11-20T17:13:33;4.20;96.60
43338;DHT22;28933;52.492;13.434;2022-11-20T17:16:20;4.20;96.60
43338;DHT22;28933;52.492;13.434;2022-11-20T17:18:46;4.20;96.60
43338;DHT22;28933;52.492;13.434;2022-11-20T17:21:14;4.10;96.60